sensor_id;sensor_type;location;lat;lon;timestamp;P1;durP1;ratioP1;P2;durP2;ratioP2
76379;SDS011;65201;21.060;105.826;2023-02-11T02:53:38;33.67;;;19.03;;
76379;SDS011;65201;21.060;105.826;2023-02-11T02:56:12;40.88;;;19.98;;
76379;SDS011;65201;21.060;105.826;2023-02-11T03:03:54;38.58;;;19.05;;
76379;SDS011;65201;21.060;105.826;2023-02-11T03:08:54;35.13;;;19.35;;
76379;SDS011;65201;21.060;105.826;2023-02-11T03:11:22;30.23;;;17.95;;
76379;SDS011;65201;21.060;105.826;2023-02-11T03:13:49;30.35;;;18.83;;
76379;SDS011;65201;21.060;105.826;2023-02-11T03:16:19;44.50;;;19.85;;
76379;SDS011;65201;21.060;105.826;2023-02-11T03:18:52;36.37;;;19.80;;
76379;SDS011;65201;21.060;105.826;2023-02-11T03:21:20;42.90;;;19.53;;
76379;SDS011;65201;21.060;105.826;2023-02-11T03:23:53;33.40;;;20.48;;
76379;SDS011;65201;21.060;105.826;2023-02-11T03:29:24;36.88;;;21.25;;
76379;SDS011;65201;21.060;105.826;2023-02-11T03:32:07;42.57;;;21.67;;
76379;SDS011;65201;21.060;105.826;2023-02-11T03:34:41;37.78;;;21.60;;
76379;SDS011;65201;21.060;105.826;2023-02-11T03:37:12;41.10;;;23.35;;
76379;SDS011;65201;21.060;105.826;2023-02-11T03:39:51;38.00;;;21.95;;
76379;SDS011;65201;21.060;105.826;2023-02-11T03:42:19;37.92;;;21.83;;
76379;SDS011;65201;21.060;105.826;2023-02-11T03:44:49;36.10;;;22.20;;
76379;SDS011;65201;21.060;105.826;2023-02-11T03:47:17;36.80;;;21.63;;
76379;SDS011;65201;21.060;105.826;2023-02-11T03:49:45;37.88;;;23.05;;
76379;SDS011;65201;21.060;105.826;2023-02-11T03:52:12;44.05;;;24.48;;
76379;SDS011;65201;21.060;105.826;2023-02-11T03:54:40;43.53;;;23.70;;
76379;SDS011;65201;21.060;105.826;2023-02-11T03:57:08;43.77;;;23.60;;
76379;SDS011;65201;21.060;105.826;2023-02-11T03:59:51;42.08;;;24.45;;
76379;SDS011;65201;21.060;105.826;2023-02-11T04:02:18;47.42;;;26.13;;
76379;SDS011;65201;21.060;105.826;2023-02-11T04:04:44;42.78;;;24.90;;
76379;SDS011;65201;21.060;105.826;2023-02-11T04:07:11;45.22;;;25.00;;
76379;SDS011;65201;21.060;105.826;2023-02-11T04:09:37;39.63;;;24.10;;
76379;SDS011;65201;21.060;105.826;2023-02-11T04:12:04;44.15;;;25.42;;
76379;SDS011;65201;21.060;105.826;2023-02-11T04:14:30;43.38;;;25.30;;
76379;SDS011;65201;21.060;105.826;2023-02-11T04:16:57;39.78;;;23.67;;
76379;SDS011;65201;21.060;105.826;2023-02-11T04:19:23;41.78;;;24.33;;
76379;SDS011;65201;21.060;105.826;2023-02-11T04:21:49;42.83;;;25.20;;
76379;SDS011;65201;21.060;105.826;2023-02-11T04:24:15;41.47;;;25.02;;
76379;SDS011;65201;21.060;105.826;2023-02-11T04:26:42;41.70;;;25.05;;
76379;SDS011;65201;21.060;105.826;2023-02-11T04:29:08;40.67;;;25.50;;
76379;SDS011;65201;21.060;105.826;2023-02-11T04:31:34;37.47;;;24.23;;
76379;SDS011;65201;21.060;105.826;2023-02-11T04:34:00;42.60;;;25.47;;
76379;SDS011;65201;21.060;105.826;2023-02-11T04:36:27;37.00;;;24.83;;
76379;SDS011;65201;21.060;105.826;2023-02-11T04:38:53;44.03;;;24.83;;
76379;SDS011;65201;21.060;105.826;2023-02-11T04:41:19;37.75;;;24.63;;
76379;SDS011;65201;21.060;105.826;2023-02-11T04:43:45;40.05;;;24.58;;
76379;SDS011;65201;21.060;105.826;2023-02-11T04:46:11;37.13;;;24.30;;
76379;SDS011;65201;21.060;105.826;2023-02-11T04:48:38;40.00;;;24.08;;
76379;SDS011;65201;21.060;105.826;2023-02-11T04:51:04;37.22;;;24.67;;
76379;SDS011;65201;21.060;105.826;2023-02-11T04:53:30;36.40;;;25.13;;
76379;SDS011;65201;21.060;105.826;2023-02-11T04:55:57;37.95;;;25.52;;
76379;SDS011;65201;21.060;105.826;2023-02-11T04:58:23;39.07;;;25.00;;
76379;SDS011;65201;21.060;105.826;2023-02-11T05:00:49;36.75;;;23.98;;
76379;SDS011;65201;21.060;105.826;2023-02-11T05:03:16;37.75;;;24.63;;
76379;SDS011;65201;21.060;105.826;2023-02-11T05:05:42;37.13;;;24.48;;
76379;SDS011;65201;21.060;105.826;2023-02-11T05:08:09;36.67;;;23.85;;
76379;SDS011;65201;21.060;105.826;2023-02-11T05:10:35;39.60;;;24.43;;
76379;SDS011;65201;21.060;105.826;2023-02-11T05:13:02;37.75;;;25.20;;
76379;SDS011;65201;21.060;105.826;2023-02-11T05:15:28;41.42;;;24.70;;
76379;SDS011;65201;21.060;105.826;2023-02-11T05:17:54;40.88;;;24.65;;
76379;SDS011;65201;21.060;105.826;2023-02-11T05:20:21;34.35;;;24.05;;
76379;SDS011;65201;21.060;105.826;2023-02-11T05:22:47;32.53;;;24.07;;
76379;SDS011;65201;21.060;105.826;2023-02-11T05:25:13;38.67;;;24.25;;
76379;SDS011;65201;21.060;105.826;2023-02-11T05:27:40;36.45;;;23.73;;
76379;SDS011;65201;21.060;105.826;2023-02-11T05:30:06;44.35;;;23.70;;
76379;SDS011;65201;21.060;105.826;2023-02-11T05:32:32;37.17;;;24.23;;
76379;SDS011;65201;21.060;105.826;2023-02-11T05:34:59;36.00;;;23.47;;
76379;SDS011;65201;21.060;105.826;2023-02-11T05:37:25;47.40;;;26.67;;
76379;SDS011;65201;21.060;105.826;2023-02-11T05:39:51;37.95;;;22.85;;
76379;SDS011;65201;21.060;105.826;2023-02-11T05:42:17;35.65;;;23.35;;
76379;SDS011;65201;21.060;105.826;2023-02-11T05:44:44;41.00;;;23.98;;
76379;SDS011;65201;21.060;105.826;2023-02-11T05:47:10;36.30;;;22.67;;
76379;SDS011;65201;21.060;105.826;2023-02-11T05:49:36;33.60;;;22.65;;
76379;SDS011;65201;21.060;105.826;2023-02-11T05:52:02;34.25;;;22.85;;
76379;SDS011;65201;21.060;105.826;2023-02-11T05:54:29;40.90;;;23.73;;
76379;SDS011;65201;21.060;105.826;2023-02-11T05:56:55;33.10;;;22.67;;
76379;SDS011;65201;21.060;105.826;2023-02-11T05:59:21;36.20;;;22.40;;
76379;SDS011;65201;21.060;105.826;2023-02-11T06:01:47;35.40;;;22.73;;
76379;SDS011;65201;21.060;105.826;2023-02-11T06:04:14;37.80;;;23.63;;
76379;SDS011;65201;21.060;105.826;2023-02-11T06:06:40;42.28;;;25.10;;
76379;SDS011;65201;21.060;105.826;2023-02-11T06:09:07;37.40;;;24.65;;
76379;SDS011;65201;21.060;105.826;2023-02-11T06:11:34;38.70;;;25.53;;
76379;SDS011;65201;21.060;105.826;2023-02-11T06:14:00;39.50;;;25.85;;
76379;SDS011;65201;21.060;105.826;2023-02-11T06:16:26;39.58;;;28.02;;
76379;SDS011;65201;21.060;105.826;2023-02-11T06:18:52;39.35;;;27.38;;
76379;SDS011;65201;21.060;105.826;2023-02-11T06:21:19;41.08;;;28.40;;
76379;SDS011;65201;21.060;105.826;2023-02-11T06:23:45;46.00;;;29.27;;
76379;SDS011;65201;21.060;105.826;2023-02-11T06:26:22;43.80;;;29.15;;
76379;SDS011;65201;21.060;105.826;2023-02-11T06:28:48;38.70;;;29.25;;
76379;SDS011;65201;21.060;105.826;2023-02-11T06:31:15;39.78;;;29.50;;
76379;SDS011;65201;21.060;105.826;2023-02-11T06:33:41;41.28;;;28.88;;
76379;SDS011;65201;21.060;105.826;2023-02-11T06:36:14;44.67;;;28.83;;
76379;SDS011;65201;21.060;105.826;2023-02-11T06:38:41;45.60;;;28.80;;
76379;SDS011;65201;21.060;105.826;2023-02-11T06:41:08;39.55;;;28.20;;
76379;SDS011;65201;21.060;105.826;2023-02-11T06:43:35;35.85;;;26.52;;
76379;SDS011;65201;21.060;105.826;2023-02-11T06:46:01;43.03;;;27.52;;
76379;SDS011;65201;21.060;105.826;2023-02-11T06:48:27;41.70;;;27.63;;
76379;SDS011;65201;21.060;105.826;2023-02-11T06:50:53;39.10;;;26.90;;
76379;SDS011;65201;21.060;105.826;2023-02-11T06:53:20;38.85;;;27.30;;
76379;SDS011;65201;21.060;105.826;2023-02-11T06:55:46;43.65;;;27.73;;
76379;SDS011;65201;21.060;105.826;2023-02-11T06:58:12;41.22;;;25.88;;
76379;SDS011;65201;21.060;105.826;2023-02-11T07:00:38;42.07;;;26.70;;
76379;SDS011;65201;21.060;105.826;2023-02-11T07:03:05;41.63;;;26.40;;
76379;SDS011;65201;21.060;105.826;2023-02-11T07:05:31;43.63;;;26.13;;
76379;SDS011;65201;21.060;105.826;2023-02-11T07:07:58;38.78;;;25.63;;
76379;SDS011;65201;21.060;105.826;2023-02-11T07:10:25;39.58;;;25.98;;
76379;SDS011;65201;21.060;105.826;2023-02-11T07:12:51;42.23;;;26.50;;
76379;SDS011;65201;21.060;105.826;2023-02-11T07:15:17;40.53;;;25.70;;
76379;SDS011;65201;21.060;105.826;2023-02-11T07:17:44;38.00;;;26.33;;
76379;SDS011;65201;21.060;105.826;2023-02-11T07:20:10;41.22;;;26.38;;
76379;SDS011;65201;21.060;105.826;2023-02-11T07:22:39;39.85;;;27.60;;
76379;SDS011;65201;21.060;105.826;2023-02-11T07:25:05;39.00;;;25.93;;
76379;SDS011;65201;21.060;105.826;2023-02-11T07:27:31;40.15;;;25.65;;
76379;SDS011;65201;21.060;105.826;2023-02-11T07:29:58;34.05;;;24.65;;
76379;SDS011;65201;21.060;105.826;2023-02-11T07:32:24;35.50;;;25.52;;
76379;SDS011;65201;21.060;105.826;2023-02-11T07:34:50;37.38;;;25.85;;
76379;SDS011;65201;21.060;105.826;2023-02-11T07:37:16;35.20;;;24.80;;
76379;SDS011;65201;21.060;105.826;2023-02-11T07:39:43;36.95;;;25.63;;
76379;SDS011;65201;21.060;105.826;2023-02-11T07:42:09;36.80;;;25.92;;
76379;SDS011;65201;21.060;105.826;2023-02-11T07:44:35;35.70;;;25.15;;
76379;SDS011;65201;21.060;105.826;2023-02-11T07:47:01;33.13;;;24.70;;
76379;SDS011;65201;21.060;105.826;2023-02-11T07:49:28;36.57;;;24.60;;
76379;SDS011;65201;21.060;105.826;2023-02-11T07:51:54;37.20;;;24.73;;
76379;SDS011;65201;21.060;105.826;2023-02-11T07:54:20;36.00;;;25.00;;
76379;SDS011;65201;21.060;105.826;2023-02-11T07:56:46;39.05;;;25.58;;
76379;SDS011;65201;21.060;105.826;2023-02-11T07:59:12;39.92;;;25.77;;
76379;SDS011;65201;21.060;105.826;2023-02-11T08:01:38;37.77;;;25.03;;
76379;SDS011;65201;21.060;105.826;2023-02-11T08:04:04;35.75;;;25.23;;
76379;SDS011;65201;21.060;105.826;2023-02-11T08:06:31;38.22;;;25.35;;
76379;SDS011;65201;21.060;105.826;2023-02-11T08:09:02;42.53;;;26.75;;
76379;SDS011;65201;21.060;105.826;2023-02-11T08:11:28;36.75;;;25.05;;
76379;SDS011;65201;21.060;105.826;2023-02-11T08:13:55;43.13;;;27.50;;
76379;SDS011;65201;21.060;105.826;2023-02-11T08:18:47;40.20;;;26.20;;
76379;SDS011;65201;21.060;105.826;2023-02-11T08:21:14;39.00;;;24.92;;
76379;SDS011;65201;21.060;105.826;2023-02-11T08:23:40;36.10;;;24.95;;
76379;SDS011;65201;21.060;105.826;2023-02-11T08:26:08;41.77;;;25.03;;
76379;SDS011;65201;21.060;105.826;2023-02-11T08:28:35;39.75;;;24.92;;
76379;SDS011;65201;21.060;105.826;2023-02-11T08:31:08;37.88;;;25.27;;
76379;SDS011;65201;21.060;105.826;2023-02-11T08:33:35;42.95;;;23.90;;
76379;SDS011;65201;21.060;105.826;2023-02-11T08:36:06;39.08;;;25.40;;
76379;SDS011;65201;21.060;105.826;2023-02-11T08:38:32;35.40;;;23.90;;
76379;SDS011;65201;21.060;105.826;2023-02-11T08:40:59;38.33;;;23.95;;
76379;SDS011;65201;21.060;105.826;2023-02-11T08:43:25;43.00;;;24.27;;
76379;SDS011;65201;21.060;105.826;2023-02-11T08:45:51;37.45;;;24.55;;
76379;SDS011;65201;21.060;105.826;2023-02-11T08:48:17;33.85;;;24.13;;
76379;SDS011;65201;21.060;105.826;2023-02-11T08:50:43;39.13;;;24.23;;
76379;SDS011;65201;21.060;105.826;2023-02-11T08:53:09;37.60;;;24.00;;
76379;SDS011;65201;21.060;105.826;2023-02-11T08:55:36;35.60;;;23.98;;
76379;SDS011;65201;21.060;105.826;2023-02-11T08:58:02;39.90;;;23.38;;
76379;SDS011;65201;21.060;105.826;2023-02-11T09:00:28;34.78;;;23.00;;
76379;SDS011;65201;21.060;105.826;2023-02-11T09:02:54;33.17;;;22.53;;
76379;SDS011;65201;21.060;105.826;2023-02-11T09:05:20;36.10;;;22.80;;
76379;SDS011;65201;21.060;105.826;2023-02-11T09:07:47;36.80;;;22.85;;
76379;SDS011;65201;21.060;105.826;2023-02-11T09:10:13;34.45;;;22.98;;
76379;SDS011;65201;21.060;105.826;2023-02-11T09:12:39;35.95;;;23.92;;
76379;SDS011;65201;21.060;105.826;2023-02-11T09:15:05;36.00;;;23.77;;
76379;SDS011;65201;21.060;105.826;2023-02-11T09:17:31;34.53;;;22.08;;
76379;SDS011;65201;21.060;105.826;2023-02-11T09:19:57;39.25;;;23.27;;
76379;SDS011;65201;21.060;105.826;2023-02-11T09:22:23;30.63;;;21.98;;
76379;SDS011;65201;21.060;105.826;2023-02-11T09:24:50;35.22;;;22.23;;
76379;SDS011;65201;21.060;105.826;2023-02-11T09:27:16;32.40;;;21.60;;
76379;SDS011;65201;21.060;105.826;2023-02-11T09:29:42;29.05;;;20.90;;
76379;SDS011;65201;21.060;105.826;2023-02-11T09:32:08;30.52;;;20.67;;
76379;SDS011;65201;21.060;105.826;2023-02-11T09:34:34;31.10;;;21.52;;
76379;SDS011;65201;21.060;105.826;2023-02-11T09:37:00;33.65;;;22.08;;
76379;SDS011;65201;21.060;105.826;2023-02-11T09:39:26;32.07;;;21.57;;
76379;SDS011;65201;21.060;105.826;2023-02-11T09:44:30;33.33;;;22.73;;
76379;SDS011;65201;21.060;105.826;2023-02-11T09:46:58;29.95;;;21.00;;
76379;SDS011;65201;21.060;105.826;2023-02-11T09:52:10;30.93;;;21.70;;
76379;SDS011;65201;21.060;105.826;2023-02-11T09:57:17;30.80;;;21.73;;
76379;SDS011;65201;21.060;105.826;2023-02-11T09:59:43;31.88;;;21.77;;
76379;SDS011;65201;21.060;105.826;2023-02-11T10:02:16;33.67;;;22.45;;
76379;SDS011;65201;21.060;105.826;2023-02-11T10:12:54;35.25;;;21.60;;
76379;SDS011;65201;21.060;105.826;2023-02-11T10:22:50;38.53;;;23.30;;
76379;SDS011;65201;21.060;105.826;2023-02-11T10:25:20;41.17;;;23.63;;
76379;SDS011;65201;21.060;105.826;2023-02-11T10:27:46;38.17;;;23.92;;
76379;SDS011;65201;21.060;105.826;2023-02-11T10:30:18;41.33;;;24.27;;
76379;SDS011;65201;21.060;105.826;2023-02-11T10:35:16;42.50;;;24.40;;
76379;SDS011;65201;21.060;105.826;2023-02-11T10:37:43;38.47;;;23.70;;
76379;SDS011;65201;21.060;105.826;2023-02-11T10:40:19;39.95;;;23.13;;
76379;SDS011;65201;21.060;105.826;2023-02-11T10:42:50;43.57;;;24.87;;
76379;SDS011;65201;21.060;105.826;2023-02-11T10:45:50;45.10;;;25.20;;
76379;SDS011;65201;21.060;105.826;2023-02-11T10:51:06;48.60;;;27.70;;
76379;SDS011;65201;21.060;105.826;2023-02-11T10:53:33;60.05;;;32.72;;
76379;SDS011;65201;21.060;105.826;2023-02-11T10:56:00;58.37;;;33.10;;
76379;SDS011;65201;21.060;105.826;2023-02-11T10:58:33;50.75;;;29.90;;
76379;SDS011;65201;21.060;105.826;2023-02-11T11:01:01;51.70;;;30.45;;
76379;SDS011;65201;21.060;105.826;2023-02-11T11:03:37;61.88;;;30.88;;
76379;SDS011;65201;21.060;105.826;2023-02-11T11:06:07;71.22;;;33.20;;
76379;SDS011;65201;21.060;105.826;2023-02-11T11:11:07;66.65;;;34.17;;
76379;SDS011;65201;21.060;105.826;2023-02-11T11:13:34;122.00;;;54.40;;
76379;SDS011;65201;21.060;105.826;2023-02-11T11:18:39;247.55;;;101.65;;
76379;SDS011;65201;21.060;105.826;2023-02-11T11:21:16;245.90;;;126.23;;
76379;SDS011;65201;21.060;105.826;2023-02-11T11:23:50;222.40;;;109.40;;
76379;SDS011;65201;21.060;105.826;2023-02-11T11:26:17;248.95;;;120.70;;
76379;SDS011;65201;21.060;105.826;2023-02-11T11:29:06;233.20;;;116.85;;
76379;SDS011;65201;21.060;105.826;2023-02-11T11:31:35;287.17;;;127.97;;
76379;SDS011;65201;21.060;105.826;2023-02-11T11:34:04;302.10;;;155.73;;
76379;SDS011;65201;21.060;105.826;2023-02-11T11:36:40;353.58;;;196.35;;
76379;SDS011;65201;21.060;105.826;2023-02-11T11:41:48;288.70;;;147.65;;
76379;SDS011;65201;21.060;105.826;2023-02-11T11:44:35;259.20;;;136.70;;
76379;SDS011;65201;21.060;105.826;2023-02-11T11:50:22;247.07;;;127.22;;
76379;SDS011;65201;21.060;105.826;2023-02-11T11:57:37;200.52;;;109.13;;
76379;SDS011;65201;21.060;105.826;2023-02-11T12:00:04;184.67;;;105.73;;
76379;SDS011;65201;21.060;105.826;2023-02-11T12:12:52;149.60;;;85.60;;
76379;SDS011;65201;21.060;105.826;2023-02-11T12:26:14;136.27;;;76.03;;
76379;SDS011;65201;21.060;105.826;2023-02-11T12:34:18;137.55;;;73.82;;
76379;SDS011;65201;21.060;105.826;2023-02-11T12:36:55;120.93;;;71.63;;
76379;SDS011;65201;21.060;105.826;2023-02-11T12:55:30;106.43;;;61.42;;
76379;SDS011;65201;21.060;105.826;2023-02-11T12:57:55;103.32;;;59.75;;
76379;SDS011;65201;21.060;105.826;2023-02-11T13:00:37;105.55;;;61.35;;
76379;SDS011;65201;21.060;105.826;2023-02-11T13:03:16;105.97;;;61.10;;
76379;SDS011;65201;21.060;105.826;2023-02-11T13:08:12;98.40;;;57.28;;
76379;SDS011;65201;21.060;105.826;2023-02-11T13:10:40;95.95;;;56.42;;
76379;SDS011;65201;21.060;105.826;2023-02-11T13:13:14;102.15;;;59.15;;
76379;SDS011;65201;21.060;105.826;2023-02-11T13:15:47;99.60;;;57.53;;
76379;SDS011;65201;21.060;105.826;2023-02-11T13:18:27;99.10;;;55.63;;
76379;SDS011;65201;21.060;105.826;2023-02-11T13:26:04;88.78;;;52.83;;
76379;SDS011;65201;21.060;105.826;2023-02-11T13:31:00;90.13;;;52.03;;
76379;SDS011;65201;21.060;105.826;2023-02-11T13:33:34;91.25;;;51.63;;
76379;SDS011;65201;21.060;105.826;2023-02-11T13:38:29;92.35;;;50.58;;
76379;SDS011;65201;21.060;105.826;2023-02-11T13:43:25;82.30;;;48.63;;
76379;SDS011;65201;21.060;105.826;2023-02-11T13:45:56;83.32;;;48.90;;
76379;SDS011;65201;21.060;105.826;2023-02-11T13:48:36;83.13;;;48.88;;
76379;SDS011;65201;21.060;105.826;2023-02-11T13:51:06;85.45;;;48.95;;
76379;SDS011;65201;21.060;105.826;2023-02-11T13:53:49;77.00;;;45.50;;
76379;SDS011;65201;21.060;105.826;2023-02-11T13:58:49;71.93;;;44.88;;
76379;SDS011;65201;21.060;105.826;2023-02-11T14:10:11;68.97;;;43.00;;
76379;SDS011;65201;21.060;105.826;2023-02-11T14:15:46;77.18;;;44.53;;
76379;SDS011;65201;21.060;105.826;2023-02-11T14:23:36;70.40;;;40.27;;
76379;SDS011;65201;21.060;105.826;2023-02-11T14:26:07;70.72;;;41.38;;
76379;SDS011;65201;21.060;105.826;2023-02-11T14:28:39;62.90;;;40.22;;
76379;SDS011;65201;21.060;105.826;2023-02-11T14:31:10;68.50;;;41.22;;
76379;SDS011;65201;21.060;105.826;2023-02-11T14:33:46;68.25;;;40.97;;
76379;SDS011;65201;21.060;105.826;2023-02-11T14:39:16;65.10;;;39.45;;
76379;SDS011;65201;21.060;105.826;2023-02-11T14:41:45;70.00;;;40.55;;
76379;SDS011;65201;21.060;105.826;2023-02-11T14:44:16;69.30;;;40.53;;
76379;SDS011;65201;21.060;105.826;2023-02-11T14:46:45;67.30;;;39.13;;
76379;SDS011;65201;21.060;105.826;2023-02-11T14:49:15;66.67;;;39.33;;
76379;SDS011;65201;21.060;105.826;2023-02-11T14:51:43;59.50;;;36.92;;
76379;SDS011;65201;21.060;105.826;2023-02-11T14:54:16;66.32;;;37.67;;
76379;SDS011;65201;21.060;105.826;2023-02-11T14:56:43;58.97;;;37.45;;
76379;SDS011;65201;21.060;105.826;2023-02-11T14:59:20;62.25;;;37.45;;
76379;SDS011;65201;21.060;105.826;2023-02-11T15:01:51;59.33;;;36.50;;
76379;SDS011;65201;21.060;105.826;2023-02-11T15:04:25;62.33;;;36.72;;
76379;SDS011;65201;21.060;105.826;2023-02-11T15:06:52;57.95;;;37.60;;
76379;SDS011;65201;21.060;105.826;2023-02-11T15:09:19;56.97;;;36.28;;
76379;SDS011;65201;21.060;105.826;2023-02-11T15:11:52;60.78;;;36.67;;
76379;SDS011;65201;21.060;105.826;2023-02-11T15:14:23;57.90;;;36.40;;
76379;SDS011;65201;21.060;105.826;2023-02-11T15:16:50;57.55;;;35.03;;
76379;SDS011;65201;21.060;105.826;2023-02-11T15:19:25;56.38;;;34.75;;
76379;SDS011;65201;21.060;105.826;2023-02-11T15:21:53;56.95;;;34.92;;
76379;SDS011;65201;21.060;105.826;2023-02-11T15:24:22;57.65;;;34.30;;
76379;SDS011;65201;21.060;105.826;2023-02-11T15:29:32;51.75;;;33.97;;
76379;SDS011;65201;21.060;105.826;2023-02-11T15:34:34;58.78;;;35.05;;
76379;SDS011;65201;21.060;105.826;2023-02-11T15:37:05;57.58;;;34.72;;
76379;SDS011;65201;21.060;105.826;2023-02-11T15:39:32;56.13;;;33.93;;
76379;SDS011;65201;21.060;105.826;2023-02-11T15:44:43;53.85;;;33.50;;
76379;SDS011;65201;21.060;105.826;2023-02-11T15:47:15;53.38;;;33.53;;
76379;SDS011;65201;21.060;105.826;2023-02-11T15:49:43;52.33;;;33.60;;
76379;SDS011;65201;21.060;105.826;2023-02-11T15:52:10;54.73;;;34.60;;
76379;SDS011;65201;21.060;105.826;2023-02-11T15:54:37;55.05;;;34.03;;
76379;SDS011;65201;21.060;105.826;2023-02-11T15:57:05;56.95;;;33.28;;
76379;SDS011;65201;21.060;105.826;2023-02-11T15:59:44;56.38;;;33.50;;
76379;SDS011;65201;21.060;105.826;2023-02-11T16:07:37;54.30;;;32.50;;
76379;SDS011;65201;21.060;105.826;2023-02-11T16:10:52;52.67;;;32.35;;
76379;SDS011;65201;21.060;105.826;2023-02-11T16:12:55;50.17;;;31.30;;
76379;SDS011;65201;21.060;105.826;2023-02-11T16:15:42;50.78;;;32.15;;
76379;SDS011;65201;21.060;105.826;2023-02-11T16:20:47;48.88;;;31.60;;
76379;SDS011;65201;21.060;105.826;2023-02-11T16:23:24;49.70;;;30.67;;
76379;SDS011;65201;21.060;105.826;2023-02-11T16:25:52;49.67;;;31.30;;
76379;SDS011;65201;21.060;105.826;2023-02-11T16:28:20;49.53;;;30.63;;
76379;SDS011;65201;21.060;105.826;2023-02-11T16:30:49;50.63;;;31.00;;
76379;SDS011;65201;21.060;105.826;2023-02-11T16:33:16;48.55;;;31.10;;
76379;SDS011;65201;21.060;105.826;2023-02-11T16:35:42;49.85;;;30.02;;
76379;SDS011;65201;21.060;105.826;2023-02-11T16:38:12;50.60;;;31.02;;
76379;SDS011;65201;21.060;105.826;2023-02-11T16:40:38;50.00;;;31.13;;
76379;SDS011;65201;21.060;105.826;2023-02-11T16:43:05;51.03;;;30.17;;
76379;SDS011;65201;21.060;105.826;2023-02-11T16:45:31;45.83;;;29.80;;
76379;SDS011;65201;21.060;105.826;2023-02-11T16:48:01;43.65;;;28.60;;
76379;SDS011;65201;21.060;105.826;2023-02-11T16:50:27;45.08;;;29.67;;
76379;SDS011;65201;21.060;105.826;2023-02-11T16:52:54;46.40;;;30.23;;
76379;SDS011;65201;21.060;105.826;2023-02-11T16:55:20;45.93;;;29.37;;
76379;SDS011;65201;21.060;105.826;2023-02-11T16:57:46;44.03;;;28.40;;
76379;SDS011;65201;21.060;105.826;2023-02-11T17:00:14;45.05;;;28.77;;
76379;SDS011;65201;21.060;105.826;2023-02-11T17:02:40;43.88;;;28.70;;
76379;SDS011;65201;21.060;105.826;2023-02-11T17:05:07;43.97;;;29.45;;
76379;SDS011;65201;21.060;105.826;2023-02-11T17:07:40;46.80;;;28.53;;
76379;SDS011;65201;21.060;105.826;2023-02-11T17:10:12;43.33;;;28.00;;
76379;SDS011;65201;21.060;105.826;2023-02-11T17:12:38;43.00;;;27.67;;
76379;SDS011;65201;21.060;105.826;2023-02-11T17:15:04;41.65;;;27.23;;
76379;SDS011;65201;21.060;105.826;2023-02-11T17:17:31;40.65;;;27.27;;
76379;SDS011;65201;21.060;105.826;2023-02-11T17:19:57;45.10;;;26.90;;
76379;SDS011;65201;21.060;105.826;2023-02-11T17:22:23;38.55;;;26.52;;
76379;SDS011;65201;21.060;105.826;2023-02-11T17:24:49;41.67;;;27.13;;
76379;SDS011;65201;21.060;105.826;2023-02-11T17:27:15;37.75;;;25.73;;
76379;SDS011;65201;21.060;105.826;2023-02-11T17:29:41;40.53;;;25.92;;
76379;SDS011;65201;21.060;105.826;2023-02-11T17:32:08;44.30;;;27.23;;
76379;SDS011;65201;21.060;105.826;2023-02-11T17:34:34;44.70;;;26.67;;
76379;SDS011;65201;21.060;105.826;2023-02-11T17:37:00;40.70;;;26.75;;
76379;SDS011;65201;21.060;105.826;2023-02-11T17:39:36;42.67;;;25.90;;
76379;SDS011;65201;21.060;105.826;2023-02-11T17:42:02;42.70;;;26.10;;
76379;SDS011;65201;21.060;105.826;2023-02-11T17:44:30;36.47;;;25.50;;
76379;SDS011;65201;21.060;105.826;2023-02-11T17:46:56;40.40;;;25.38;;
76379;SDS011;65201;21.060;105.826;2023-02-11T17:49:23;40.00;;;24.63;;
76379;SDS011;65201;21.060;105.826;2023-02-11T17:51:49;39.60;;;25.23;;
76379;SDS011;65201;21.060;105.826;2023-02-11T17:54:16;36.97;;;24.38;;
76379;SDS011;65201;21.060;105.826;2023-02-11T17:56:42;37.63;;;25.10;;
76379;SDS011;65201;21.060;105.826;2023-02-11T17:59:09;35.72;;;24.27;;
76379;SDS011;65201;21.060;105.826;2023-02-11T18:01:36;38.35;;;24.58;;
76379;SDS011;65201;21.060;105.826;2023-02-11T18:04:03;38.55;;;23.70;;
76379;SDS011;65201;21.060;105.826;2023-02-11T18:06:29;34.13;;;23.55;;
76379;SDS011;65201;21.060;105.826;2023-02-11T18:08:59;39.53;;;23.70;;
76379;SDS011;65201;21.060;105.826;2023-02-11T18:11:27;32.35;;;23.13;;
76379;SDS011;65201;21.060;105.826;2023-02-11T18:13:55;36.08;;;24.05;;
76379;SDS011;65201;21.060;105.826;2023-02-11T18:16:21;35.78;;;23.83;;
76379;SDS011;65201;21.060;105.826;2023-02-11T18:18:48;38.92;;;23.58;;
76379;SDS011;65201;21.060;105.826;2023-02-11T18:21:16;34.37;;;22.33;;
76379;SDS011;65201;21.060;105.826;2023-02-11T18:23:42;33.10;;;22.60;;
76379;SDS011;65201;21.060;105.826;2023-02-11T18:26:09;33.58;;;22.15;;
76379;SDS011;65201;21.060;105.826;2023-02-11T18:28:36;30.38;;;21.75;;
76379;SDS011;65201;21.060;105.826;2023-02-11T18:31:02;36.42;;;22.85;;
76379;SDS011;65201;21.060;105.826;2023-02-11T18:33:29;33.70;;;23.33;;
76379;SDS011;65201;21.060;105.826;2023-02-11T18:35:55;35.17;;;22.58;;
76379;SDS011;65201;21.060;105.826;2023-02-11T18:38:21;32.90;;;22.35;;
76379;SDS011;65201;21.060;105.826;2023-02-11T18:40:48;33.05;;;22.40;;
76379;SDS011;65201;21.060;105.826;2023-02-11T18:43:18;34.95;;;23.08;;
76379;SDS011;65201;21.060;105.826;2023-02-11T18:45:45;30.97;;;22.17;;
76379;SDS011;65201;21.060;105.826;2023-02-11T18:48:11;36.42;;;22.48;;
76379;SDS011;65201;21.060;105.826;2023-02-11T18:50:41;35.28;;;22.40;;
76379;SDS011;65201;21.060;105.826;2023-02-11T18:53:09;31.52;;;22.55;;
76379;SDS011;65201;21.060;105.826;2023-02-11T18:55:39;34.30;;;22.45;;
76379;SDS011;65201;21.060;105.826;2023-02-11T18:58:05;32.83;;;22.93;;
76379;SDS011;65201;21.060;105.826;2023-02-11T19:00:32;35.05;;;23.02;;
76379;SDS011;65201;21.060;105.826;2023-02-11T19:02:59;38.08;;;23.20;;
76379;SDS011;65201;21.060;105.826;2023-02-11T19:05:25;33.33;;;22.42;;
76379;SDS011;65201;21.060;105.826;2023-02-11T19:07:55;34.67;;;22.77;;
76379;SDS011;65201;21.060;105.826;2023-02-11T19:10:21;34.10;;;23.10;;
76379;SDS011;65201;21.060;105.826;2023-02-11T19:12:47;35.63;;;21.83;;
76379;SDS011;65201;21.060;105.826;2023-02-11T19:15:14;36.72;;;23.27;;
76379;SDS011;65201;21.060;105.826;2023-02-11T19:17:41;33.22;;;21.67;;
76379;SDS011;65201;21.060;105.826;2023-02-11T19:20:07;34.65;;;22.33;;
76379;SDS011;65201;21.060;105.826;2023-02-11T19:22:33;34.20;;;22.40;;
76379;SDS011;65201;21.060;105.826;2023-02-11T19:24:59;34.90;;;21.95;;
76379;SDS011;65201;21.060;105.826;2023-02-11T19:27:25;35.00;;;22.60;;
76379;SDS011;65201;21.060;105.826;2023-02-11T19:29:51;32.90;;;21.77;;